Time;durP1;ratioP1;P1;durP2;ratioP2;P2;SDS_P1;SDS_P2;PMS_P1;PMS_P2;Temp;Humidity;BMP_temperature;BMP_pressure;BME280_temperature;BME280_humidity;BME280_pressure;Samples;Min_cycle;Max_cycle;Signal;HPM_P1;HPM_P2
2023/06/27 00:04:10;;;;;;;6.38;3.83;;;;;;;19.71;72.61;97685.78;10457801;28;20122;-70
2023/06/27 00:09:31;;;;;;;6.60;3.67;;;;;;;19.66;72.83;97689.13;10415374;28;20049;-70
2023/06/27 00:14:51;;;;;;;7.63;4.15;;;;;;;19.64;72.82;97678.47;10428750;28;20060;-70
2023/06/27 00:20:12;;;;;;;6.93;3.60;;;;;;;19.59;72.78;97691.06;10457403;28;20041;-70
2023/06/27 00:25:32;;;;;;;6.60;3.50;;;;;;;19.64;72.82;97691.91;10442159;28;20121;-71
2023/06/27 00:30:53;;;;;;;6.20;3.85;;;;;;;19.74;73.03;97689.38;10456947;28;20068;-70
2023/06/27 00:36:14;;;;;;;7.07;3.90;;;;;;;19.84;72.66;97714.47;10442148;28;20048;-70
2023/06/27 00:41:35;;;;;;;8.85;4.68;;;;;;;19.98;73.17;97717.75;10441782;28;20121;-70
2023/06/27 00:46:55;;;;;;;8.55;3.72;;;;;;;19.89;72.42;97741.53;10454969;28;20068;-70
2023/06/27 00:52:16;;;;;;;9.93;3.60;;;;;;;19.77;73.22;97732.66;10456098;28;20037;-71
2023/06/27 00:57:40;;;;;;;8.05;3.13;;;;;;;19.64;73.11;97723.06;10441678;28;20072;-70
2023/06/27 01:03:02;;;;;;;6.85;3.45;;;;;;;19.65;73.53;97728.06;10441140;28;20084;-69
2023/06/27 01:08:27;;;;;;;6.18;3.47;;;;;;;19.58;73.39;97737.00;10440870;28;20044;-70
2023/06/27 01:13:49;;;;;;;5.78;3.33;;;;;;;19.56;73.70;97737.66;10454976;28;20072;-70
2023/06/27 01:19:12;;;;;;;5.60;3.35;;;;;;;19.55;73.37;97744.69;10440948;28;20124;-70
2023/06/27 01:24:32;;;;;;;6.32;3.70;;;;;;;19.49;73.56;97735.28;10426900;28;20068;-70
2023/06/27 01:29:53;;;;;;;6.05;3.40;;;;;;;19.48;73.84;97743.03;10454366;28;20095;-70
2023/06/27 01:35:27;;;;;;;6.30;3.42;;;;;;;19.49;73.93;97749.41;10440576;28;20041;-70
2023/06/27 01:40:49;;;;;;;6.75;3.45;;;;;;;19.46;74.06;97751.47;10440423;28;20057;-71
2023/06/27 01:46:10;;;;;;;5.70;3.80;;;;;;;19.45;74.11;97761.34;10440378;28;20068;-71
2023/06/27 01:51:33;;;;;;;;;;;;;;;19.51;74.66;97767.22;10413719;28;20072;-70
2023/06/27 01:56:54;;;;;;;5.53;4.38;;;;;;;19.46;74.10;97757.13;10440085;28;20011;-70
2023/06/27 02:02:15;;;;;;;8.32;4.40;;;;;;;19.42;74.79;97759.84;10446271;28;20084;-70
2023/06/27 02:07:35;;;;;;;6.25;4.00;;;;;;;19.34;74.91;97756.72;10433350;28;20049;-70
2023/06/27 02:12:56;;;;;;;10.32;3.72;;;;;;;19.23;74.69;97757.78;10419635;28;20145;-70
2023/06/27 02:18:17;;;;;;;7.03;3.78;;;;;;;19.17;74.50;97769.59;10447060;28;20120;-70
2023/06/27 02:23:37;;;;;;;7.07;4.13;;;;;;;19.14;74.60;97774.47;10460660;28;20065;-70
2023/06/27 02:28:58;;;;;;;9.90;3.22;;;;;;;19.08;74.43;97777.09;10446457;28;20041;-70
2023/06/27 02:34:19;;;;;;;10.02;3.15;;;;;;;18.89;74.92;97783.47;10446003;28;20478;-69
2023/06/27 02:39:40;;;;;;;10.13;3.42;;;;;;;18.90;75.18;97807.56;10431921;28;20045;-70
2023/06/27 02:45:00;;;;;;;7.47;3.45;;;;;;;18.79;75.60;97808.56;10459447;28;20479;-70
2023/06/27 02:50:21;;;;;;;8.07;3.72;;;;;;;18.67;75.17;97814.50;10445817;28;20056;-71
2023/06/27 02:55:44;;;;;;;9.40;3.47;;;;;;;18.62;75.28;97820.63;10433289;28;20060;-71
2023/06/27 03:01:08;;;;;;;7.85;2.85;;;;;;;18.57;75.41;97811.28;10459009;28;20125;-71
2023/06/27 03:06:33;;;;;;;6.57;2.67;;;;;;;18.49;75.12;97825.09;10444860;28;20092;-70
2023/06/27 03:11:57;;;;;;;5.20;2.55;;;;;;;18.40;74.99;97815.59;10458819;28;20415;-71
2023/06/27 03:17:24;;;;;;;4.72;2.25;;;;;;;18.22;75.15;97818.44;10443013;28;20495;-70
2023/06/27 03:22:45;;;;;;;5.95;2.28;;;;;;;18.18;75.16;97828.88;10457760;28;20073;-71
2023/06/27 03:28:06;;;;;;;6.53;1.73;;;;;;;18.18;74.48;97828.88;10445721;28;20048;-71
2023/06/27 03:33:36;;;;;;;9.18;2.25;;;;;;;18.17;74.53;97838.72;10468401;28;20039;-71
2023/06/27 03:38:57;;;;;;;4.93;1.80;;;;;;;18.27;74.32;97848.31;10470804;28;20067;-72
2023/06/27 03:44:18;;;;;;;6.28;2.15;;;;;;;18.35;74.28;97850.00;10470948;28;20064;-72
2023/06/27 03:49:38;;;;;;;6.82;2.30;;;;;;;18.44;73.91;97854.59;10499261;28;20036;-72
2023/06/27 03:54:59;;;;;;;7.50;2.25;;;;;;;18.52;73.66;97858.44;10484460;28;20116;-72
2023/06/27 04:00:19;;;;;;;6.10;1.80;;;;;;;18.52;73.04;97860.53;10498355;28;20072;-72
2023/06/27 04:05:40;;;;;;;4.55;1.60;;;;;;;18.76;72.87;97872.81;10469878;28;20083;-72
2023/06/27 04:11:05;;;;;;;4.15;1.98;;;;;;;19.13;72.58;97854.34;10481810;28;20040;-74
2023/06/27 04:16:27;;;;;;;5.80;1.67;;;;;;;19.31;71.50;97865.59;10469045;28;20056;-77
2023/06/27 04:21:47;;;;;;;7.13;1.60;;;;;;;19.57;71.21;97858.03;10469773;28;20124;-71
2023/06/27 04:27:08;;;;;;;7.35;1.65;;;;;;;19.89;70.38;97864.06;10469191;28;20075;-71
2023/06/27 04:32:33;;;;;;;4.68;1.60;;;;;;;20.15;69.76;97861.34;10483303;28;20068;-71
2023/06/27 04:37:56;;;;;;;3.40;1.40;;;;;;;20.22;68.39;97862.25;10482886;28;20151;-71
2023/06/27 04:43:17;;;;;;;4.35;1.95;;;;;;;20.10;66.38;97859.06;10497770;28;20547;-70
2023/06/27 04:48:38;;;;;;;5.18;1.73;;;;;;;19.68;67.09;97842.81;10482547;28;20068;-74
2023/06/27 04:53:59;;;;;;;7.13;2.28;;;;;;;19.30;67.23;97869.78;10482488;28;20052;-70
2023/06/27 04:59:19;;;;;;;8.07;1.98;;;;;;;19.03;67.43;97883.00;10482575;28;20126;-69
2023/06/27 05:04:40;;;;;;;4.70;2.35;;;;;;;19.11;68.12;97877.66;10496979;28;20076;-71
2023/06/27 05:10:01;;;;;;;10.20;2.42;;;;;;;19.70;67.97;97888.22;10496068;28;20037;-72
2023/06/27 05:15:22;;;;;;;7.28;2.08;;;;;;;20.42;67.02;97887.69;10468225;28;20068;-78
2023/06/27 05:20:43;;;;;;;7.30;2.25;;;;;;;20.58;66.03;97882.53;10468651;28;20087;-83
2023/06/27 05:26:04;;;;;;;8.70;2.42;;;;;;;20.35;65.67;97883.19;10496457;28;20362;-81
2023/06/27 05:31:24;;;;;;;4.63;1.77;;;;;;;20.41;65.32;97889.06;10482131;28;20064;-81
2023/06/27 05:36:45;;;;;;;4.70;1.40;;;;;;;20.49;64.81;97897.84;10487871;28;20379;-73
2023/06/27 05:42:05;;;;;;;4.68;1.40;;;;;;;20.46;63.89;97902.00;10489551;28;20051;-73
2023/06/27 05:47:26;;;;;;;6.43;1.42;;;;;;;20.55;63.97;97895.91;10461697;28;20079;-74
2023/06/27 05:52:47;;;;;;;4.15;1.42;;;;;;;20.79;63.10;97904.44;10489459;28;20069;-74
2023/06/27 05:58:07;;;;;;;5.88;2.13;;;;;;;21.08;62.12;97896.78;10489004;28;20044;-74
2023/06/27 06:03:28;;;;;;;6.03;1.83;;;;;;;21.63;61.29;97910.41;10474646;28;20084;-74
2023/06/27 06:08:49;;;;;;;3.95;1.33;;;;;;;22.04;60.06;97911.44;10474537;28;20536;-74
2023/06/27 06:14:10;;;;;;;4.65;1.08;;;;;;;22.35;58.95;97924.31;10474201;28;20068;-74
2023/06/27 06:19:30;;;;;;;6.65;1.20;;;;;;;23.14;57.38;97926.09;10474230;28;20049;-74
2023/06/27 06:24:51;;;;;;;7.97;1.05;;;;;;;23.07;56.29;97927.38;10473954;28;20052;-75
2023/06/27 06:30:12;;;;;;;4.00;1.08;;;;;;;23.35;55.35;97929.34;10473637;28;20052;-74
2023/06/27 06:35:33;;;;;;;4.28;0.98;;;;;;;23.51;54.32;97923.97;10445936;28;20045;-74
2023/06/27 06:40:53;;;;;;;2.47;0.82;;;;;;;24.11;53.14;97940.78;10473507;28;20111;-74
2023/06/27 06:46:14;;;;;;;4.53;1.00;;;;;;;24.15;51.30;97935.16;10458032;28;20431;-74
2023/06/27 06:51:35;;;;;;;3.92;0.90;;;;;;;23.71;50.61;97920.81;10459082;28;20040;-74
2023/06/27 06:56:55;;;;;;;3.17;0.90;;;;;;;23.42;50.32;97922.38;10472423;28;20048;-74
2023/06/27 07:02:16;;;;;;;4.78;1.00;;;;;;;22.81;49.42;97935.31;10472134;28;20071;-74
2023/06/27 07:07:37;;;;;;;3.28;0.90;;;;;;;22.34;49.91;97945.59;10472403;28;20059;-74
2023/06/27 07:12:58;;;;;;;4.65;0.88;;;;;;;22.62;49.76;97936.31;10472347;28;20497;-75
2023/06/27 07:18:18;;;;;;;6.18;1.42;;;;;;;23.23;46.91;97949.03;10458559;28;20087;-75
2023/06/27 07:23:39;;;;;;;6.60;0.82;;;;;;;23.07;47.32;97953.00;10485859;28;20048;-74
2023/06/27 07:29:00;;;;;;;7.25;0.90;;;;;;;22.44;47.54;97939.44;10471708;28;20337;-75
2023/06/27 07:34:21;;;;;;;7.93;1.17;;;;;;;22.41;47.77;97940.78;10471728;28;20040;-74
2023/06/27 07:39:42;;;;;;;5.60;0.98;;;;;;;22.38;47.34;97945.69;10484713;28;20556;-75
2023/06/27 07:45:04;;;;;;;5.00;0.88;;;;;;;22.37;46.82;97952.78;10472128;28;20483;-71
2023/06/27 07:50:25;;;;;;;2.90;0.50;;;;;;;22.40;46.58;97959.97;10442601;28;20095;-79
2023/06/27 07:55:46;;;;;;;3.05;0.32;;;;;;;22.80;44.99;97959.50;10441991;28;20088;-74
2023/06/27 08:01:06;;;;;;;2.42;0.40;;;;;;;24.43;42.33;97962.75;10442973;28;20053;-75
2023/06/27 08:06:27;;;;;;;2.95;0.40;;;;;;;26.28;40.21;97945.06;10483880;28;20371;-76
2023/06/27 08:11:48;;;;;;;2.75;0.43;;;;;;;27.38;35.39;97963.00;10497835;28;20067;-76
2023/06/27 08:17:08;;;;;;;3.70;0.60;;;;;;;27.85;34.08;97948.84;10497673;28;20044;-76
2023/06/27 08:22:29;;;;;;;2.50;0.35;;;;;;;28.20;32.82;97950.34;10469369;28;20044;-76
2023/06/27 08:27:52;;;;;;;3.40;0.60;;;;;;;28.78;31.25;97971.91;10498111;28;20068;-76
2023/06/27 08:33:13;;;;;;;1.85;0.40;;;;;;;29.49;30.14;97956.66;10483091;28;20068;-76
2023/06/27 08:38:34;;;;;;;3.40;0.50;;;;;;;29.88;28.69;97951.44;10482736;28;20048;-76
2023/06/27 08:43:55;;;;;;;;;;;;;;;29.17;27.95;97968.97;10497387;28;20037;-76
2023/06/27 08:49:20;;;;;;;3.35;0.40;;;;;;;29.19;27.86;97948.13;10482367;28;20019;-76
2023/06/27 08:54:43;;;;;;;2.42;0.52;;;;;;;29.03;26.90;97955.34;10468807;28;20398;-75
2023/06/27 09:00:09;;;;;;;2.70;0.55;;;;;;;28.81;27.11;97955.38;10482138;28;20044;-75
2023/06/27 09:05:32;;;;;;;1.90;0.40;;;;;;;29.86;26.22;97944.97;10482946;28;20052;-74
2023/06/27 09:10:52;;;;;;;2.67;0.50;;;;;;;29.72;25.16;97951.50;10481821;28;20068;-74
2023/06/27 09:16:13;;;;;;;4.13;0.50;;;;;;;28.94;25.78;97956.81;10496091;28;20044;-74
2023/06/27 09:21:35;;;;;;;4.63;0.52;;;;;;;29.53;26.31;97956.66;10496236;28;20041;-74
2023/06/27 09:26:56;;;;;;;2.45;0.32;;;;;;;29.43;25.66;97971.03;10481960;28;20041;-74
2023/06/27 09:32:16;;;;;;;2.97;0.57;;;;;;;29.79;25.52;97960.84;10479887;28;20455;-75
2023/06/27 09:37:37;;;;;;;2.45;0.52;;;;;;;30.47;24.38;97970.47;10467618;28;20064;-74
2023/06/27 09:43:00;;;;;;;1.55;0.40;;;;;;;31.33;24.45;97950.94;10481033;28;20140;-75
2023/06/27 09:48:21;;;;;;;5.30;0.63;;;;;;;31.01;23.76;97951.28;10492234;28;20064;-75
2023/06/27 09:53:42;;;;;;;1.73;0.45;;;;;;;31.84;23.92;97958.25;10463160;28;20064;-75
2023/06/27 09:59:08;;;;;;;2.63;0.60;;;;;;;32.27;22.42;97938.13;10478792;28;20052;-74
2023/06/27 10:04:41;;;;;;;2.67;0.50;;;;;;;31.97;22.75;97947.25;10429709;28;20049;-74
2023/06/27 10:10:02;;;;;;;3.60;0.50;;;;;;;31.43;22.34;97947.22;10453992;28;20493;-74
2023/06/27 10:15:23;;;;;;;3.63;0.50;;;;;;;31.11;22.78;97938.94;10439896;28;20060;-74
2023/06/27 10:20:43;;;;;;;1.70;0.40;;;;;;;31.25;22.39;97933.00;10428178;28;20737;-74
2023/06/27 10:26:04;;;;;;;2.43;0.53;;;;;;;31.67;21.48;97926.00;10446825;28;20048;-76
2023/06/27 10:31:44;;;;;;;2.40;0.50;;;;;;;30.45;22.08;97928.00;10446466;28;20545;-74
2023/06/27 10:37:05;;;;;;;1.52;0.50;;;;;;;29.35;23.08;97930.84;10446979;28;20052;-74
2023/06/27 10:42:28;;;;;;;2.03;0.40;;;;;;;27.93;23.94;97929.53;10446171;28;20490;-74
2023/06/27 10:47:49;;;;;;;1.45;0.40;;;;;;;28.41;24.29;97915.94;10445866;28;20044;-74
2023/06/27 10:53:14;;;;;;;1.65;0.57;;;;;;;28.91;24.07;97914.44;10431505;28;20045;-75
2023/06/27 10:58:44;;;;;;;1.88;0.40;;;;;;;29.89;23.38;97898.19;10446413;28;20044;-75
2023/06/27 11:04:19;;;;;;;2.37;0.50;;;;;;;29.86;22.31;97884.56;10445644;28;20057;-75
2023/06/27 11:09:49;;;;;;;2.40;0.40;;;;;;;28.06;23.50;97890.06;10445861;28;20045;-74
2023/06/27 11:15:10;;;;;;;2.53;0.30;;;;;;;28.59;23.68;97892.25;10431167;28;20053;-75
2023/06/27 11:20:31;;;;;;;1.70;0.45;;;;;;;27.92;23.49;97884.34;10444580;28;20041;-75
2023/06/27 11:25:52;;;;;;;2.08;0.40;;;;;;;27.07;24.00;97882.66;10430650;28;20045;-74
2023/06/27 11:31:13;;;;;;;0.80;0.30;;;;;;;27.13;24.72;97881.25;10443447;28;20129;-74
2023/06/27 11:36:38;;;;;;;1.90;0.30;;;;;;;28.01;23.96;97874.31;10444184;28;20075;-74
2023/06/27 11:41:59;;;;;;;1.33;0.35;;;;;;;28.08;23.33;97870.00;10443557;28;20045;-74
2023/06/27 11:47:19;;;;;;;4.47;0.30;;;;;;;28.08;22.96;97844.16;10443665;28;20479;-74
2023/06/27 11:52:41;;;;;;;1.17;0.30;;;;;;;28.88;22.40;97864.88;10429410;28;20067;-75
2023/06/27 11:58:05;;;;;;;2.80;0.40;;;;;;;29.47;22.25;97872.56;10415831;28;20403;-74
2023/06/27 12:03:29;;;;;;;3.78;0.40;;;;;;;29.32;21.02;97869.75;10442694;28;20095;-74
2023/06/27 12:08:50;;;;;;;1.88;0.30;;;;;;;28.32;21.74;97852.09;10415189;28;20048;-74
2023/06/27 12:14:23;;;;;;;1.47;0.30;;;;;;;27.79;21.84;97857.06;10456596;28;20065;-75
2023/06/27 12:19:43;;;;;;;;;;;;;;;27.44;22.63;97848.41;10443169;28;20069;-74
2023/06/27 12:25:04;;;;;;;2.50;0.30;;;;;;;28.26;22.81;97849.19;10428430;28;20366;-75
2023/06/27 12:30:25;;;;;;;2.63;0.30;;;;;;;28.75;21.62;97838.34;10441407;28;20483;-74
2023/06/27 12:35:46;;;;;;;2.15;0.43;;;;;;;28.31;22.08;97832.72;10441982;28;20474;-74
2023/06/27 12:41:07;;;;;;;2.78;0.40;;;;;;;27.83;22.20;97831.28;10441401;28;20527;-75
2023/06/27 12:46:27;;;;;;;3.38;0.25;;;;;;;27.20;22.49;97820.38;10454436;28;20045;-75
2023/06/27 12:51:49;;;;;;;1.00;0.30;;;;;;;27.02;22.27;97826.78;10427692;28;20108;-75
2023/06/27 12:57:10;;;;;;;3.10;0.40;;;;;;;27.61;22.44;97818.34;10455086;28;20116;-75
2023/06/27 13:02:30;;;;;;;2.75;0.30;;;;;;;28.39;22.05;97810.47;10456101;28;20057;-74
2023/06/27 13:07:54;;;;;;;1.15;0.30;;;;;;;28.56;22.05;97802.50;10427958;28;20436;-75
2023/06/27 13:13:16;;;;;;;1.13;0.30;;;;;;;28.41;21.90;97809.72;10440805;28;20041;-74
2023/06/27 13:18:36;;;;;;;2.58;0.43;;;;;;;28.09;21.85;97810.47;10441195;28;20501;-75
2023/06/27 13:23:57;;;;;;;2.60;0.35;;;;;;;28.62;21.36;97793.16;10440546;28;20044;-75
2023/06/27 13:29:18;;;;;;;1.25;0.30;;;;;;;28.71;21.18;97792.41;10455435;28;20041;-75
2023/06/27 13:34:38;;;;;;;3.03;0.50;;;;;;;28.24;21.14;97791.78;10454303;28;20118;-75
2023/06/27 13:39:59;;;;;;;1.40;0.50;;;;;;;28.19;20.78;97784.66;10454490;28;20125;-75
2023/06/27 13:45:20;;;;;;;1.15;0.32;;;;;;;27.90;21.28;97781.09;10426253;28;20099;-75
2023/06/27 13:50:41;;;;;;;1.70;0.40;;;;;;;27.24;21.63;97768.13;10440063;28;20045;-75
2023/06/27 13:56:03;;;;;;;5.38;0.40;;;;;;;26.76;22.04;97763.66;10412810;28;20068;-75
2023/06/27 14:01:25;;;;;;;2.40;0.35;;;;;;;26.74;22.46;97763.66;10461720;28;20087;-75
2023/06/27 14:06:51;;;;;;;0.85;0.20;;;;;;;26.76;22.17;97758.66;10433919;28;20065;-75
2023/06/27 14:12:13;;;;;;;3.50;0.50;;;;;;;26.79;22.27;97759.38;10447249;28;20052;-74
2023/06/27 14:17:34;;;;;;;1.05;0.25;;;;;;;26.91;22.14;97756.53;10447199;28;20052;-75
2023/06/27 14:22:57;;;;;;;3.55;0.40;;;;;;;27.09;21.98;97748.03;10432822;28;20068;-76
2023/06/27 14:28:18;;;;;;;7.30;0.52;;;;;;;27.06;21.80;97754.47;10460668;28;20065;-75
2023/06/27 14:33:39;;;;;;;1.92;0.40;;;;;;;26.90;21.80;97743.66;10460237;28;20044;-75
2023/06/27 14:38:59;;;;;;;1.73;0.38;;;;;;;27.09;22.04;97748.03;10446110;28;20041;-75
2023/06/27 14:44:20;;;;;;;1.48;0.35;;;;;;;26.46;21.98;97752.81;10460133;28;20045;-75
2023/06/27 14:49:41;;;;;;;1.02;0.35;;;;;;;26.01;22.59;97740.34;10431735;28;20040;-75
2023/06/27 14:55:02;;;;;;;1.63;0.30;;;;;;;26.03;22.93;97748.94;10460642;28;20044;-75
2023/06/27 15:00:23;;;;;;;1.88;0.50;;;;;;;25.55;24.10;97745.00;10459249;28;20477;-75
2023/06/27 15:05:44;;;;;;;2.30;0.73;;;;;;;25.07;24.68;97754.53;10430255;28;20049;-75
2023/06/27 15:11:04;;;;;;;1.17;0.30;;;;;;;24.96;25.60;97740.81;10430926;28;20068;-76
2023/06/27 15:16:25;;;;;;;4.15;0.57;;;;;;;25.04;25.90;97740.94;10459633;28;20052;-75
2023/06/27 15:21:46;;;;;;;4.05;0.40;;;;;;;24.96;26.10;97746.53;10444613;28;20060;-75
2023/06/27 15:27:06;;;;;;;1.23;0.38;;;;;;;24.80;26.26;97741.38;10444274;28;20544;-75
2023/06/27 15:32:27;;;;;;;1.90;0.40;;;;;;;24.73;26.42;97749.16;10459100;28;20040;-75
2023/06/27 15:37:48;;;;;;;2.28;0.40;;;;;;;24.44;26.54;97756.63;10444087;28;20072;-75
2023/06/27 15:43:09;;;;;;;1.20;0.40;;;;;;;23.97;26.71;97755.25;10457845;28;20041;-75
2023/06/27 15:48:29;;;;;;;1.98;0.40;;;;;;;23.65;27.29;97756.19;10443464;28;20066;-75
2023/06/27 15:53:50;;;;;;;1.63;0.40;;;;;;;23.32;28.03;97766.28;10457134;28;20041;-75
2023/06/27 15:59:11;;;;;;;2.55;0.55;;;;;;;22.83;28.95;97776.00;10457387;28;20076;-75
2023/06/27 16:04:32;;;;;;;3.92;0.40;;;;;;;22.55;30.36;97776.88;10456796;28;20083;-75
2023/06/27 16:09:52;;;;;;;5.68;0.30;;;;;;;22.52;30.37;97781.06;10456795;28;20479;-75
2023/06/27 16:15:13;;;;;;;3.58;0.35;;;;;;;22.43;31.09;97778.75;10457619;28;20045;-75
2023/06/27 16:20:34;;;;;;;0.93;0.30;;;;;;;22.43;31.92;97773.78;10428637;28;20402;-75
2023/06/27 16:25:54;;;;;;;2.92;0.40;;;;;;;22.60;32.12;97771.28;10442368;28;20068;-75
2023/06/27 16:31:15;;;;;;;1.67;0.60;;;;;;;22.95;31.91;97770.56;10442032;28;20103;-75
2023/06/27 16:36:36;;;;;;;4.45;0.68;;;;;;;23.26;32.02;97762.59;10442014;28;20044;-75
2023/06/27 16:41:57;;;;;;;3.28;0.47;;;;;;;23.42;31.64;97768.56;10456720;28;20410;-75
2023/06/27 16:47:18;;;;;;;3.95;0.60;;;;;;;23.60;31.29;97776.75;10441979;28;20479;-75
2023/06/27 16:52:38;;;;;;;6.13;0.38;;;;;;;23.57;31.26;97778.09;10455412;28;20394;-75
2023/06/27 16:57:59;;;;;;;2.15;0.50;;;;;;;23.47;31.30;97792.88;10427476;28;20388;-75
2023/06/27 17:03:20;;;;;;;2.35;0.43;;;;;;;22.95;31.61;97792.63;10455893;28;20056;-74
2023/06/27 17:08:41;;;;;;;1.88;0.40;;;;;;;22.44;32.45;97815.03;10455085;28;20045;-75
2023/06/27 17:14:03;;;;;;;2.03;0.40;;;;;;;21.77;33.02;97827.66;10427028;28;20045;-75
2023/06/27 17:19:24;;;;;;;2.90;0.40;;;;;;;21.21;33.58;97816.25;10427345;28;20538;-73
2023/06/27 17:24:45;;;;;;;1.30;0.40;;;;;;;20.66;33.93;97819.69;10454871;28;20064;-73
2023/06/27 17:30:06;;;;;;;1.90;0.30;;;;;;;20.41;34.12;97815.38;10442192;28;20045;-73
2023/06/27 17:35:27;;;;;;;1.52;0.30;;;;;;;20.10;34.31;97802.38;10449136;28;20128;-73
2023/06/27 17:40:48;;;;;;;3.47;0.30;;;;;;;20.22;34.27;97814.81;10448633;28;20549;-73
2023/06/27 17:46:08;;;;;;;1.98;0.57;;;;;;;20.09;34.57;97829.28;10448524;28;20045;-73
2023/06/27 17:51:29;;;;;;;0.88;0.38;;;;;;;19.95;35.10;97855.03;10448078;28;20407;-72
2023/06/27 17:56:53;;;;;;;1.70;0.40;;;;;;;19.60;35.64;97884.31;10462799;28;20479;-73
2023/06/27 18:02:14;;;;;;;1.23;0.30;;;;;;;18.99;37.21;97870.78;10447987;28;20057;-75
2023/06/27 18:07:35;;;;;;;1.60;0.30;;;;;;;18.59;38.06;97877.09;10461594;28;20517;-74
2023/06/27 18:12:58;;;;;;;1.17;0.38;;;;;;;18.37;38.76;97870.59;10448096;28;20055;-75
2023/06/27 18:18:19;;;;;;;4.18;0.50;;;;;;;18.01;40.19;97862.13;10447119;28;20052;-75
2023/06/27 18:23:41;;;;;;;1.05;0.30;;;;;;;17.98;41.18;97852.13;10447413;28;20049;-75
2023/06/27 18:29:02;;;;;;;2.40;0.30;;;;;;;17.99;41.66;97833.06;10419349;28;20045;-75
2023/06/27 18:34:22;;;;;;;3.40;0.40;;;;;;;17.87;42.42;97830.50;10446645;28;20041;-75
2023/06/27 18:39:43;;;;;;;2.35;0.40;;;;;;;18.02;42.76;97831.78;10446556;28;20045;-74
2023/06/27 18:45:04;;;;;;;1.20;0.30;;;;;;;18.10;43.01;97822.91;10445981;28;20045;-75
2023/06/27 18:50:25;;;;;;;1.05;0.22;;;;;;;18.11;43.31;97841.28;10432016;28;20467;-75
2023/06/27 18:55:47;;;;;;;1.02;0.40;;;;;;;18.07;43.30;97852.44;10418704;28;20036;-75
2023/06/27 19:01:08;;;;;;;1.45;0.30;;;;;;;17.97;43.77;97853.50;10445722;28;20040;-73
2023/06/27 19:06:29;;;;;;;1.38;0.30;;;;;;;17.87;44.06;97864.38;10486785;28;20048;-74
2023/06/27 19:11:50;;;;;;;4.88;0.63;;;;;;;17.77;44.02;97874.53;10486904;28;20399;-74
2023/06/27 19:17:11;;;;;;;1.85;0.32;;;;;;;17.70;44.60;97882.75;10486719;28;20506;-74
2023/06/27 19:22:32;;;;;;;1.00;0.30;;;;;;;17.51;45.07;97880.47;10486179;28;20072;-74
2023/06/27 19:27:54;;;;;;;1.30;0.30;;;;;;;17.39;45.70;97879.97;10486347;28;20068;-74
2023/06/27 19:33:15;;;;;;;2.05;0.30;;;;;;;17.40;46.59;97864.50;10472026;28;20402;-74
2023/06/27 19:38:36;;;;;;;4.35;0.43;;;;;;;17.22;48.36;97853.16;10485897;28;20048;-75
2023/06/27 19:43:57;;;;;;;1.30;0.43;;;;;;;17.15;48.83;97854.97;10499406;28;20055;-74
2023/06/27 19:49:18;;;;;;;1.27;0.40;;;;;;;17.03;49.95;97839.63;10485106;28;20044;-74
2023/06/27 19:54:40;;;;;;;1.65;0.30;;;;;;;17.04;50.08;97829.78;10484737;28;20040;-75
2023/06/27 20:00:01;;;;;;;3.08;0.40;;;;;;;17.00;50.68;97840.91;10484875;28;20071;-74
2023/06/27 20:05:32;;;;;;;5.78;0.50;;;;;;;17.05;51.07;97831.97;10452301;28;20053;-74
2023/06/27 20:10:53;;;;;;;2.13;0.50;;;;;;;17.07;51.38;97839.78;10429212;28;20045;-75
2023/06/27 20:16:14;;;;;;;1.60;0.45;;;;;;;17.14;51.54;97847.88;10429037;28;20055;-75
2023/06/27 20:21:36;;;;;;;1.25;0.50;;;;;;;17.17;51.99;97843.03;10442479;28;20045;-75
2023/06/27 20:26:57;;;;;;;1.50;0.50;;;;;;;17.15;52.53;97840.16;10428798;28;20056;-75
2023/06/27 20:32:20;;;;;;;1.60;0.55;;;;;;;17.09;52.65;97845.53;10442543;28;20501;-75
2023/06/27 20:37:41;;;;;;;1.75;0.60;;;;;;;17.10;52.75;97847.00;10441916;28;20044;-75
2023/06/27 20:43:02;;;;;;;3.22;0.73;;;;;;;17.08;52.95;97852.53;10455869;28;20049;-75
2023/06/27 20:48:24;;;;;;;3.08;0.95;;;;;;;17.01;53.44;97862.09;10441816;28;20489;-75
2023/06/27 20:53:44;;;;;;;1.85;0.90;;;;;;;17.02;54.13;97872.00;10441664;28;20044;-75
2023/06/27 20:59:05;;;;;;;2.63;0.70;;;;;;;17.03;54.00;97884.75;10441653;28;20041;-75
2023/06/27 21:04:28;;;;;;;2.78;0.70;;;;;;;17.03;54.09;97896.03;10434361;28;20076;-75
2023/06/27 21:09:49;;;;;;;3.28;0.60;;;;;;;17.07;54.39;97915.94;10441796;28;20108;-75
2023/06/27 21:15:10;;;;;;;2.55;0.50;;;;;;;16.97;54.21;97919.03;10441071;28;20434;-75
2023/06/27 21:20:30;;;;;;;1.40;0.70;;;;;;;16.89;54.99;97927.13;10441215;28;20049;-75
2023/06/27 21:25:51;;;;;;;1.38;0.57;;;;;;;16.84;55.08;97926.22;10440875;28;20048;-75
2023/06/27 21:31:12;;;;;;;2.50;0.73;;;;;;;16.66;56.08;97945.06;10454793;28;20215;-75
2023/06/27 21:36:35;;;;;;;3.47;0.60;;;;;;;16.35;56.80;97916.81;10440957;28;20041;-75
2023/06/27 21:41:55;;;;;;;1.88;0.68;;;;;;;16.08;57.95;97909.19;10427041;28;20110;-75
2023/06/27 21:47:16;;;;;;;2.08;0.50;;;;;;;15.89;59.15;97879.41;10426817;28;20100;-76
2023/06/27 21:52:37;;;;;;;1.67;0.70;;;;;;;15.79;60.07;97845.88;10454226;28;20482;-76
2023/06/27 21:57:57;;;;;;;2.67;0.88;;;;;;;15.74;60.79;97847.78;10426473;28;20064;-75
2023/06/27 22:03:18;;;;;;;2.95;0.82;;;;;;;15.71;61.97;97837.75;10440088;28;20056;-75
2023/06/27 22:08:43;;;;;;;1.60;0.57;;;;;;;15.72;62.05;97832.84;10454177;28;20099;-75
2023/06/27 22:14:04;;;;;;;2.30;0.77;;;;;;;15.63;61.75;97831.75;10440185;28;20041;-75
2023/06/27 22:19:24;;;;;;;1.05;0.50;;;;;;;15.72;62.78;97841.31;10432560;28;20045;-75
2023/06/27 22:24:45;;;;;;;1.67;0.60;;;;;;;15.81;62.66;97839.63;10447271;28;20048;-75
2023/06/27 22:30:07;;;;;;;2.05;0.90;;;;;;;15.84;62.96;97832.75;10419532;28;20041;-75
2023/06/27 22:35:27;;;;;;;1.35;0.50;;;;;;;15.77;62.90;97853.50;10447145;28;20045;-75
2023/06/27 22:40:48;;;;;;;1.75;0.70;;;;;;;15.56;63.39;97846.84;10446520;28;20056;-75
2023/06/27 22:46:08;;;;;;;2.20;0.85;;;;;;;15.44;64.09;97843.41;10461483;28;20064;-74
2023/06/27 22:51:29;;;;;;;2.58;0.80;;;;;;;15.13;65.21;97838.34;10432366;28;20045;-74
2023/06/27 22:56:50;;;;;;;1.50;0.60;;;;;;;15.00;65.45;97834.19;10432081;28;20045;-74
2023/06/27 23:02:10;;;;;;;2.65;0.60;;;;;;;14.80;66.15;97835.94;10445794;28;20048;-74
2023/06/27 23:07:31;;;;;;;3.47;0.60;;;;;;;14.59;66.21;97831.34;10445547;28;20048;-74
2023/06/27 23:12:52;;;;;;;1.23;0.45;;;;;;;14.45;66.86;97830.56;10445671;28;20060;-74
2023/06/27 23:18:16;;;;;;;2.25;0.50;;;;;;;14.37;67.45;97830.09;10431384;28;20037;-74
2023/06/27 23:23:38;;;;;;;2.00;0.60;;;;;;;14.23;67.55;97830.06;10445671;28;20107;-74
2023/06/27 23:29:05;;;;;;;1.55;0.40;;;;;;;14.13;68.33;97823.91;10457924;28;20037;-74
2023/06/27 23:34:26;;;;;;;2.80;0.50;;;;;;;14.09;67.90;97843.31;10445253;28;20037;-74
2023/06/27 23:39:48;;;;;;;1.15;0.32;;;;;;;13.96;68.37;97831.41;10444754;28;20079;-74
2023/06/27 23:45:09;;;;;;;1.20;0.40;;;;;;;13.91;68.62;97835.34;10444331;28;20045;-75
2023/06/27 23:50:30;;;;;;;2.55;0.60;;;;;;;13.88;68.79;97839.38;10443905;28;20489;-74
2023/06/27 23:55:51;;;;;;;1.88;0.50;;;;;;;13.98;69.11;97831.53;10443866;28;20041;-75
